createdAt,value
2018-08-23T00:01:41.926Z,54.44
2018-08-23T00:04:12.614Z,55.07
2018-08-23T00:06:59.774Z,55.62
2018-08-23T00:09:31.687Z,55.92
2018-08-23T00:12:01.974Z,55.73
2018-08-23T00:14:32.328Z,55.22
2018-08-23T00:17:03.585Z,55.53
2018-08-23T00:19:34.474Z,56.13
2018-08-23T00:22:06.334Z,55.07
2018-08-23T00:24:36.327Z,55.29
2018-08-23T00:27:34.976Z,55.64
2018-08-23T00:30:10.538Z,56.61
2018-08-23T00:32:40.579Z,56.33
2018-08-23T00:35:14.555Z,55.92
2018-08-23T00:37:44.823Z,56.07
2018-08-23T00:40:15.435Z,56.34
2018-08-23T00:43:19.894Z,56.79
2018-08-23T00:45:49.824Z,56.62
2018-08-23T00:48:21.754Z,56.19
2018-08-23T00:50:59.448Z,56.37
2018-08-23T00:53:32.604Z,56.78
2018-08-23T00:56:22.185Z,56.73
2018-08-23T00:59:06.483Z,57.00
2018-08-23T01:01:36.277Z,56.10
2018-08-23T01:04:05.776Z,56.95
2018-08-23T01:06:43.837Z,56.29
2018-08-23T01:09:14.322Z,55.75
2018-08-23T01:11:47.452Z,56.04
2018-08-23T01:14:18.107Z,55.77
2018-08-23T01:20:09.715Z,56.60
2018-08-23T01:22:48.580Z,55.86
2018-08-23T01:25:18.887Z,55.69
2018-08-23T01:27:48.315Z,56.61
2018-08-23T01:30:18.247Z,56.48
2018-08-23T01:32:48.744Z,55.93
2018-08-23T01:35:19.499Z,56.82
2018-08-23T01:37:49.295Z,55.90
2018-08-23T01:40:20.554Z,56.82
2018-08-23T01:42:49.926Z,55.87
2018-08-23T01:45:22.622Z,56.36
2018-08-23T01:47:54.237Z,56.39
2018-08-23T01:50:23.996Z,56.32
2018-08-23T01:52:54.788Z,56.34
2018-08-23T01:55:25.132Z,56.33
2018-08-23T01:57:54.989Z,55.56
2018-08-23T02:00:31.174Z,55.40
2018-08-23T02:03:02.336Z,55.99
2018-08-23T02:05:34.048Z,56.19
2018-08-23T02:08:04.639Z,56.93
2018-08-23T02:10:34.180Z,55.98
2018-08-23T02:13:05.536Z,56.46
2018-08-23T02:15:42.406Z,56.14
2018-08-23T02:18:11.857Z,55.90
2018-08-23T02:20:43.439Z,56.07
2018-08-23T02:23:13.212Z,56.13
2018-08-23T02:25:44.649Z,56.18
2018-08-23T02:28:13.857Z,56.06
2018-08-23T02:30:54.350Z,56.54
2018-08-23T02:33:24.403Z,56.81
2018-08-23T02:36:23.211Z,56.85
2018-08-23T02:38:56.696Z,56.45
2018-08-23T02:41:26.253Z,56.34
2018-08-23T02:43:57.927Z,55.83
2018-08-23T02:46:27.808Z,56.70
2018-08-23T02:48:57.684Z,56.65
2018-08-23T02:51:38.682Z,56.99
2018-08-23T02:54:15.902Z,59.00
2018-08-23T02:56:51.688Z,59.06
2018-08-23T02:59:21.370Z,57.96
2018-08-23T03:01:51.390Z,59.04
2018-08-23T03:04:26.292Z,58.36
2018-08-23T03:07:01.045Z,59.26
2018-08-23T03:09:39.369Z,59.91
2018-08-23T03:12:16.447Z,60.16
2018-08-23T03:14:46.045Z,59.61
2018-08-23T03:17:24.418Z,60.20
2018-08-23T03:20:03.890Z,60.77
2018-08-23T03:22:34.103Z,60.43
2018-08-23T03:25:12.799Z,60.47
2018-08-23T03:28:25.352Z,60.87
2018-08-23T03:31:00.255Z,60.28
2018-08-23T03:33:30.951Z,60.81
2018-08-23T03:36:01.095Z,60.90
2018-08-23T03:38:30.852Z,60.36
2018-08-23T03:41:00.185Z,60.92
2018-08-23T03:43:31.045Z,60.83
2018-08-23T03:46:01.296Z,61.02
2018-08-23T03:48:30.903Z,61.79
2018-08-23T03:51:02.397Z,61.66
2018-08-23T03:53:47.327Z,61.94
2018-08-23T03:56:18.154Z,60.93
2018-08-23T03:58:52.166Z,62.08
2018-08-23T04:01:22.353Z,62.33
2018-08-23T04:03:52.161Z,61.88
2018-08-23T04:06:38.175Z,62.40
2018-08-23T04:09:09.785Z,61.97
2018-08-23T04:11:39.707Z,62.03
2018-08-23T04:14:14.348Z,61.98
2018-08-23T04:16:53.192Z,61.54
2018-08-23T04:19:22.816Z,61.41
2018-08-23T04:21:52.697Z,61.94
2018-08-23T04:24:22.191Z,61.61
2018-08-23T04:26:51.737Z,61.83
2018-08-23T04:29:33.709Z,61.44
2018-08-23T04:34:46.909Z,62.44
2018-08-23T04:37:16.525Z,62.11
2018-08-23T04:39:50.923Z,62.81
2018-08-23T04:42:20.736Z,62.84
2018-08-23T04:44:52.373Z,62.35
2018-08-23T04:47:23.492Z,62.45
2018-08-23T04:49:53.430Z,62.82
2018-08-23T04:52:23.248Z,62.71
2018-08-23T04:54:52.633Z,62.00
2018-08-23T04:57:22.860Z,62.52
2018-08-23T04:59:53.303Z,63.65
2018-08-23T05:02:23.823Z,63.36
2018-08-23T05:04:55.048Z,63.13
2018-08-23T05:07:25.845Z,62.53
2018-08-23T05:09:55.863Z,62.80
2018-08-23T05:12:26.520Z,62.91
2018-08-23T05:14:58.760Z,63.59
2018-08-23T05:17:28.689Z,64.51
2018-08-23T05:19:58.613Z,63.65
2018-08-23T05:22:28.470Z,63.88
2018-08-23T05:25:05.204Z,64.42
2018-08-23T05:27:44.908Z,64.35
2018-08-23T05:30:16.916Z,63.91
2018-08-23T05:32:47.696Z,63.76
2018-08-23T05:35:17.310Z,65.14
2018-08-23T05:37:47.665Z,64.06
2018-08-23T05:40:19.121Z,64.65
2018-08-23T05:42:55.650Z,63.93
2018-08-23T05:45:35.771Z,63.54
2018-08-23T05:48:16.221Z,62.21
2018-08-23T05:50:46.899Z,62.05
2018-08-23T05:53:20.448Z,60.56
2018-08-23T05:55:52.360Z,60.82
2018-08-23T05:58:24.619Z,60.46
2018-08-23T06:00:54.600Z,59.59
2018-08-23T06:03:25.002Z,58.28
2018-08-23T06:05:56.123Z,57.93
2018-08-23T06:08:26.793Z,58.67
2018-08-23T06:10:59.039Z,57.79
2018-08-23T06:13:30.959Z,57.10
2018-08-23T06:16:00.716Z,55.58
2018-08-23T06:18:30.602Z,54.89
2018-08-23T06:21:02.941Z,54.17
2018-08-23T06:24:37.347Z,53.93
2018-08-23T06:27:07.017Z,52.34
2018-08-23T06:29:53.685Z,52.16
2018-08-23T06:32:27.958Z,50.77
2018-08-23T06:35:06.363Z,50.22
2018-08-23T06:37:37.433Z,50.44
2018-08-23T06:40:07.890Z,49.04
2018-08-23T06:42:46.477Z,48.46
2018-08-23T06:45:18.266Z,47.94
2018-08-23T06:47:50.738Z,46.96
2018-08-23T06:50:24.032Z,46.29
2018-08-23T06:52:54.018Z,45.69
2018-08-23T06:55:34.560Z,46.60
2018-08-23T06:58:06.007Z,46.00
2018-08-23T07:00:35.800Z,44.96
2018-08-23T07:03:09.745Z,44.97
2018-08-23T07:05:39.325Z,44.88
2018-08-23T07:08:13.636Z,44.62
2018-08-23T07:10:56.851Z,45.70
2018-08-23T07:13:27.345Z,46.04
2018-08-23T07:16:00.791Z,46.36
2018-08-23T07:18:32.881Z,46.25
2018-08-23T07:21:07.579Z,46.00
2018-08-23T07:23:37.444Z,44.99
2018-08-23T07:26:07.218Z,44.46
2018-08-23T07:28:38.110Z,44.76
2018-08-23T07:31:10.748Z,44.67
2018-08-23T07:33:44.068Z,45.42
2018-08-23T07:36:30.538Z,47.34
2018-08-23T07:39:00.060Z,47.52
2018-08-23T07:41:31.414Z,47.42
2018-08-23T07:44:01.945Z,48.70
2018-08-23T07:46:31.815Z,47.98
2018-08-23T07:49:02.299Z,46.58
2018-08-23T07:51:33.736Z,45.36
2018-08-23T07:54:13.284Z,43.94
2018-08-23T07:56:45.200Z,46.55
2018-08-23T07:59:25.088Z,45.70
2018-08-23T08:04:44.969Z,43.36
2018-08-23T08:07:22.795Z,44.25
2018-08-23T08:09:55.681Z,43.03
2018-08-23T08:12:39.033Z,42.90
2018-08-23T08:15:18.072Z,41.22
2018-08-23T08:17:51.381Z,40.66
2018-08-23T08:20:22.709Z,41.81
2018-08-23T08:22:53.454Z,41.47
2018-08-23T08:25:29.179Z,39.88
2018-08-23T08:28:00.443Z,39.65
2018-08-23T08:30:43.546Z,39.40
2018-08-23T08:36:04.113Z,40.29
2018-08-23T08:38:36.203Z,40.17
2018-08-23T08:41:05.766Z,39.92
2018-08-23T08:43:37.421Z,39.20
2018-08-23T08:46:09.203Z,38.31
2018-08-23T08:48:38.681Z,37.70
2018-08-23T08:51:32.741Z,37.79
2018-08-23T08:54:07.505Z,37.27
2018-08-23T08:56:40.312Z,36.98
2018-08-23T08:59:11.293Z,37.99
2018-08-23T09:01:40.928Z,37.73
2018-08-23T09:04:24.615Z,37.85
2018-08-23T09:06:56.089Z,38.42
2018-08-23T09:09:35.494Z,40.16
2018-08-23T09:12:07.632Z,39.25
2018-08-23T09:14:41.806Z,39.39
2018-08-23T09:17:28.123Z,38.16
2018-08-23T09:20:37.474Z,37.82
2018-08-23T09:23:09.705Z,37.12
2018-08-23T09:25:49.547Z,35.87
2018-08-23T09:28:21.517Z,34.92
2018-08-23T09:30:51.808Z,34.54
2018-08-23T09:33:23.809Z,34.55
2018-08-23T09:35:57.773Z,34.81
2018-08-23T09:38:30.262Z,34.98
2018-08-23T09:41:01.680Z,36.27
2018-08-23T09:43:32.508Z,36.56
2018-08-23T09:46:07.921Z,36.96
2018-08-23T09:48:41.109Z,36.47
2018-08-23T09:51:48.054Z,37.80
2018-08-23T09:54:30.584Z,36.51
2018-08-23T09:57:21.616Z,36.19
2018-08-23T09:59:57.987Z,35.14
2018-08-23T10:02:42.577Z,34.45
2018-08-23T10:05:19.524Z,33.38
2018-08-23T10:07:56.147Z,32.14
2018-08-23T10:10:33.201Z,31.53
2018-08-23T10:13:08.965Z,31.92
2018-08-23T10:17:52.164Z,31.97
2018-08-23T10:20:26.489Z,32.01
2018-08-23T10:23:08.839Z,32.30
2018-08-23T10:25:44.141Z,30.46
2018-08-23T10:28:21.554Z,30.54
2018-08-23T10:30:53.334Z,30.59
2018-08-23T10:33:26.791Z,32.20
2018-08-23T10:36:00.013Z,31.40
2018-08-23T10:38:38.417Z,30.78
2018-08-23T10:41:08.048Z,31.16
2018-08-23T10:43:43.427Z,30.86
2018-08-23T10:46:14.411Z,30.27
2018-08-23T10:48:47.354Z,29.10
2018-08-23T10:51:20.399Z,29.01
2018-08-23T10:53:52.894Z,28.68
2018-08-23T10:56:26.779Z,29.97
2018-08-23T10:58:59.003Z,29.71
2018-08-23T11:01:29.328Z,28.80
2018-08-23T11:04:07.398Z,28.60
2018-08-23T11:06:42.911Z,28.30
2018-08-23T11:09:22.347Z,29.30
2018-08-23T11:14:55.980Z,29.30
2018-08-23T11:17:34.496Z,28.66
2018-08-23T11:20:28.436Z,28.38
2018-08-23T11:22:59.656Z,28.69
2018-08-23T11:25:36.465Z,28.89
2018-08-23T11:28:15.866Z,26.70
2018-08-23T11:30:50.457Z,28.48
2018-08-23T11:33:23.424Z,27.59
2018-08-23T11:36:16.048Z,27.83
2018-08-23T11:38:54.556Z,26.82
2018-08-23T11:41:28.066Z,27.60
2018-08-23T11:43:58.795Z,27.16
2018-08-23T11:46:36.470Z,26.48
2018-08-23T11:49:07.951Z,26.83
2018-08-23T11:51:45.503Z,26.26
2018-08-23T11:54:19.449Z,26.26
2018-08-23T11:56:50.237Z,26.56
2018-08-23T11:59:22.223Z,27.40
2018-08-23T12:01:58.019Z,27.47
2018-08-23T12:04:35.482Z,26.95
2018-08-23T12:07:05.096Z,26.67
2018-08-23T12:09:37.225Z,27.05
2018-08-23T12:12:09.225Z,28.24
2018-08-23T12:14:40.276Z,27.83
2018-08-23T12:17:14.927Z,28.59
2018-08-23T12:19:50.452Z,27.95
2018-08-23T12:22:23.665Z,28.79
2018-08-23T12:24:53.817Z,29.34
2018-08-23T12:27:23.347Z,28.78
2018-08-23T12:29:53.945Z,28.25
2018-08-23T12:32:27.137Z,29.42
2018-08-23T12:34:58.734Z,30.44
2018-08-23T12:37:33.681Z,29.48
2018-08-23T12:40:12.199Z,29.33
2018-08-23T12:42:55.708Z,29.97
2018-08-23T12:45:27.036Z,30.71
2018-08-23T12:48:00.475Z,31.34
2018-08-23T12:50:29.945Z,31.13
2018-08-23T12:53:03.134Z,31.25
2018-08-23T12:55:35.190Z,32.22
2018-08-23T12:58:10.654Z,32.68
2018-08-23T13:00:45.823Z,32.49
2018-08-23T13:03:19.545Z,31.08
2018-08-23T13:05:50.165Z,31.69
2018-08-23T13:08:19.631Z,31.52
2018-08-23T13:10:50.532Z,31.44
2018-08-23T13:13:22.094Z,31.18
2018-08-23T13:15:53.563Z,31.80
2018-08-23T13:18:27.901Z,31.97
2018-08-23T13:27:01.196Z,31.71
2018-08-23T13:29:34.880Z,31.65
2018-08-23T13:32:15.273Z,32.86
2018-08-23T13:34:44.995Z,32.90
2018-08-23T13:37:23.149Z,33.18
2018-08-23T13:39:54.442Z,33.30
2018-08-23T13:42:28.289Z,33.59
2018-08-23T13:45:07.210Z,33.83
2018-08-23T13:47:37.341Z,33.39
2018-08-23T13:50:10.363Z,33.31
2018-08-23T13:52:57.617Z,33.04
2018-08-23T13:55:36.506Z,33.75
2018-08-23T13:58:10.642Z,33.04
2018-08-23T14:00:54.583Z,33.36
2018-08-23T14:03:34.421Z,34.67
2018-08-23T14:06:19.863Z,33.93
2018-08-23T14:08:56.340Z,34.13
2018-08-23T14:11:30.565Z,33.68
2018-08-23T14:18:07.762Z,33.74
2018-08-23T14:20:38.789Z,35.27
2018-08-23T14:25:43.086Z,35.10
2018-08-23T14:28:13.735Z,35.53
2018-08-23T14:30:45.477Z,35.49
2018-08-23T14:33:18.623Z,35.99
2018-08-23T14:35:51.830Z,35.47
2018-08-23T14:38:21.835Z,35.14
2018-08-23T14:41:07.312Z,35.94
2018-08-23T14:43:36.695Z,36.34
2018-08-23T14:46:21.744Z,36.32
2018-08-23T14:48:53.504Z,36.18
2018-08-23T14:51:23.172Z,36.54
2018-08-23T14:53:52.644Z,36.69
2018-08-23T14:56:27.438Z,36.22
2018-08-23T14:58:59.427Z,35.39
2018-08-23T15:01:31.204Z,35.58
2018-08-23T15:04:13.758Z,36.03
2018-08-23T15:06:51.560Z,35.89
2018-08-23T15:09:26.329Z,35.62
2018-08-23T15:11:57.572Z,35.93
2018-08-23T15:14:27.505Z,35.74
2018-08-23T15:16:57.659Z,35.43
2018-08-23T15:19:33.177Z,36.66
2018-08-23T15:22:08.234Z,37.54
2018-08-23T15:24:39.312Z,37.62
2018-08-23T15:27:12.826Z,37.06
2018-08-23T15:29:45.556Z,36.71
2018-08-23T15:32:22.741Z,37.40
2018-08-23T15:34:54.433Z,37.46
2018-08-23T15:37:24.508Z,37.62
2018-08-23T15:40:06.665Z,38.20
2018-08-23T15:42:45.676Z,39.48
2018-08-23T15:45:17.815Z,39.78
2018-08-23T15:47:48.449Z,38.85
2018-08-23T15:50:19.402Z,39.55
2018-08-23T15:52:49.675Z,39.79
2018-08-23T15:55:20.915Z,39.64
2018-08-23T15:57:50.299Z,39.86
2018-08-23T16:00:36.788Z,39.98
2018-08-23T16:03:11.266Z,39.97
2018-08-23T16:05:41.241Z,40.62
2018-08-23T16:08:15.821Z,40.93
2018-08-23T16:10:46.009Z,41.09
2018-08-23T16:13:17.002Z,42.27
2018-08-23T16:15:48.501Z,42.10
2018-08-23T16:18:24.694Z,41.00
2018-08-23T16:21:03.389Z,41.99
2018-08-23T16:23:36.413Z,41.88
2018-08-23T16:26:07.667Z,42.18
2018-08-23T16:28:39.337Z,42.00
2018-08-23T16:31:10.855Z,42.79
2018-08-23T16:33:47.229Z,42.42
2018-08-23T16:36:21.650Z,41.54
2018-08-23T16:38:51.200Z,41.84
2018-08-23T16:44:25.070Z,41.48
2018-08-23T16:46:59.189Z,41.17
2018-08-23T16:49:31.379Z,42.14
2018-08-23T16:52:04.208Z,42.49
2018-08-23T16:54:35.104Z,42.39
2018-08-23T16:57:11.772Z,42.10
2018-08-23T16:59:45.714Z,42.96
2018-08-23T17:02:23.818Z,42.12
2018-08-23T17:04:59.540Z,42.17
2018-08-23T17:07:34.402Z,41.99
2018-08-23T17:10:07.550Z,43.63
2018-08-23T17:12:43.335Z,42.72
2018-08-23T17:15:19.466Z,42.72
2018-08-23T17:17:56.370Z,42.39
2018-08-23T17:20:31.338Z,42.84
2018-08-23T17:23:03.308Z,42.12
2018-08-23T17:25:34.751Z,43.15
2018-08-23T17:28:07.386Z,42.75
2018-08-23T17:30:39.391Z,43.00
2018-08-23T17:33:10.014Z,43.30
2018-08-23T17:35:41.719Z,42.22
2018-08-23T17:38:28.148Z,43.10
2018-08-23T17:43:43.433Z,43.28
2018-08-23T17:46:20.593Z,43.72
2018-08-23T17:48:51.628Z,43.33
2018-08-23T17:51:22.334Z,43.49
2018-08-23T17:53:53.674Z,43.56
2018-08-23T17:56:27.638Z,44.50
2018-08-23T17:59:01.516Z,43.81
2018-08-23T18:01:33.245Z,43.41
2018-08-23T18:04:04.313Z,43.86
2018-08-23T18:06:36.466Z,43.74
2018-08-23T18:09:11.110Z,44.02
2018-08-23T18:11:42.767Z,44.32
2018-08-23T18:14:15.436Z,44.12
2018-08-23T18:16:52.938Z,43.91
2018-08-23T18:19:23.057Z,44.11
2018-08-23T18:21:57.640Z,44.13
2018-08-23T18:24:30.052Z,43.64
2018-08-23T18:27:29.601Z,44.22
2018-08-23T18:30:04.011Z,44.16
2018-08-23T18:32:35.315Z,44.31
2018-08-23T18:35:06.505Z,43.83
2018-08-23T18:37:38.403Z,43.74
2018-08-23T18:40:08.416Z,44.28
2018-08-23T18:42:39.817Z,44.21
2018-08-23T18:47:47.153Z,44.99
2018-08-23T18:50:18.044Z,44.86
2018-08-23T18:52:49.272Z,45.25
2018-08-23T18:55:26.276Z,45.45
2018-08-23T18:57:59.629Z,45.06
2018-08-23T19:00:31.948Z,44.64
2018-08-23T19:03:11.515Z,45.03
2018-08-23T19:05:43.612Z,45.87
2018-08-23T19:08:29.040Z,45.56
2018-08-23T19:11:16.392Z,46.25
2018-08-23T19:13:51.303Z,45.94
2018-08-23T19:19:08.299Z,45.82
2018-08-23T19:21:38.729Z,45.71
2018-08-23T19:24:11.557Z,45.50
2018-08-23T19:26:48.951Z,45.21
2018-08-23T19:29:46.492Z,45.47
2018-08-23T19:32:19.542Z,45.18
2018-08-23T19:34:55.917Z,45.30
2018-08-23T19:37:28.285Z,45.09
2018-08-23T19:39:59.137Z,45.59
2018-08-23T19:42:28.790Z,45.63
2018-08-23T19:45:05.628Z,45.51
2018-08-23T19:47:44.584Z,45.52
2018-08-23T19:50:18.398Z,44.75
2018-08-23T19:52:52.478Z,44.98
2018-08-23T19:55:27.007Z,45.66
2018-08-23T19:57:58.528Z,45.93
2018-08-23T20:00:35.975Z,45.72
2018-08-23T20:03:07.420Z,45.78
2018-08-23T20:05:38.910Z,46.75
2018-08-23T20:08:09.471Z,46.80
2018-08-23T20:10:39.803Z,46.68
2018-08-23T20:13:14.806Z,46.95
2018-08-23T20:15:50.160Z,46.88
2018-08-23T20:18:23.286Z,45.84
2018-08-23T20:20:54.638Z,45.90
2018-08-23T20:23:29.644Z,47.09
2018-08-23T20:26:01.468Z,46.62
2018-08-23T20:28:34.836Z,46.09
2018-08-23T20:31:07.603Z,47.51
2018-08-23T20:33:49.470Z,47.35
2018-08-23T20:36:21.481Z,47.14
2018-08-23T20:38:56.411Z,47.07
2018-08-23T20:41:28.149Z,46.83
2018-08-23T20:43:59.000Z,47.64
2018-08-23T20:46:31.772Z,46.83
2018-08-23T20:49:04.241Z,47.82
2018-08-23T20:51:34.759Z,48.17
2018-08-23T20:54:07.566Z,48.19
2018-08-23T20:56:39.383Z,47.28
2018-08-23T20:59:11.295Z,47.35
2018-08-23T21:04:26.876Z,48.21
2018-08-23T21:07:04.027Z,47.65
2018-08-23T21:09:34.279Z,48.20
2018-08-23T21:14:56.569Z,48.47
2018-08-23T21:17:29.202Z,48.44
2018-08-23T21:20:01.244Z,48.70
2018-08-23T21:22:33.003Z,48.87
2018-08-23T21:27:47.091Z,49.38
2018-08-23T21:30:22.208Z,49.30
2018-08-23T21:32:53.226Z,49.17
2018-08-23T21:35:23.217Z,49.77
2018-08-23T21:37:52.549Z,49.09
2018-08-23T21:40:33.425Z,50.07
2018-08-23T21:43:03.544Z,50.20
2018-08-23T21:45:34.965Z,50.21
2018-08-23T21:48:11.412Z,49.96
2018-08-23T21:50:42.244Z,49.36
2018-08-23T21:53:11.907Z,50.33
2018-08-23T21:55:44.956Z,50.27
2018-08-23T21:58:15.996Z,50.57
2018-08-23T22:00:51.715Z,50.22
2018-08-23T22:03:21.567Z,51.02
2018-08-23T22:05:56.515Z,51.10
2018-08-23T22:08:27.719Z,50.70
2018-08-23T22:10:57.846Z,50.21
2018-08-23T22:13:27.727Z,50.42
2018-08-23T22:15:58.721Z,50.13
2018-08-23T22:18:29.782Z,49.20
2018-08-23T22:20:59.552Z,49.35
2018-08-23T22:23:29.744Z,49.13
2018-08-23T22:25:59.407Z,49.13
2018-08-23T22:28:29.052Z,48.72
2018-08-23T22:31:00.467Z,49.12
2018-08-23T22:33:31.685Z,48.35
2018-08-23T22:36:03.867Z,48.88
2018-08-23T22:38:33.494Z,48.17
2018-08-23T22:41:03.034Z,48.72
2018-08-23T22:43:32.725Z,49.42
2018-08-23T22:46:02.410Z,48.87
2018-08-23T22:48:32.283Z,48.52
2018-08-23T22:51:02.352Z,48.66
2018-08-23T22:53:31.848Z,49.00
2018-08-23T22:56:02.642Z,49.05
2018-08-23T22:58:32.630Z,48.97
2018-08-23T23:01:03.204Z,48.91
2018-08-23T23:03:38.681Z,49.19
2018-08-23T23:06:10.444Z,49.66
2018-08-23T23:08:40.816Z,48.77
2018-08-23T23:14:02.190Z,49.64
2018-08-23T23:17:58.491Z,50.31
2018-08-23T23:20:27.991Z,50.92
2018-08-23T23:23:00.622Z,51.55
2018-08-23T23:25:32.575Z,51.30
2018-08-23T23:28:02.816Z,51.85
2018-08-23T23:30:32.577Z,51.44
2018-08-23T23:33:04.641Z,51.54
2018-08-23T23:35:35.162Z,51.66
2018-08-23T23:38:05.833Z,52.66
2018-08-23T23:40:36.250Z,52.39
2018-08-23T23:43:06.789Z,52.43
2018-08-23T23:45:36.770Z,52.07
2018-08-23T23:48:07.279Z,52.42
2018-08-23T23:50:36.855Z,52.57
2018-08-23T23:53:07.779Z,53.01
2018-08-23T23:55:39.495Z,57.23
2018-08-23T23:58:09.016Z,59.64
